Weather at Gammelsdorf Glider Field

Public forecast

Using degrees Celsius for public forecast. Weather courtesy of forecast.io.

Closest aviation weather report (METAR) to Gammelsdorf Glider Field

Closest report is Munich Airport, 14.1 nm (26.1 km) SSW.

2022/11/30 23:20 (retrieved 38 minutes ago)

EDDM 302320Z AUTO VRB01KT 6000 OVC005 01/00 Q1021 NOSIG

Closest aviation forecast (TAF) to Gammelsdorf Glider Field

Closest forecast is Munich Airport, 14.1 nm (26.1 km) SSW.

2022/11/30 18:27 (retrieved 6 hours ago)

TAF EDDM 301700Z 3018/0124 06004KT 9999 OVC015 TEMPO 3019/3022 BKN012 BECMG 3022/3024 OVC012 PROB30 TEMPO 0101/0110 4500 BR OVC007 BECMG 0114/0117 BKN020 PROB30 TEMPO 0120/0124 BKN012